createdAt,value
2023-09-15T00:01:43.538Z,13.33
2023-09-15T00:04:13.196Z,13.27
2023-09-15T00:06:41.126Z,13.26
2023-09-15T00:09:15.705Z,13.03
2023-09-15T00:11:43.432Z,13.44
2023-09-15T00:14:12.454Z,13.12
2023-09-15T00:16:41.762Z,13.12
2023-09-15T00:19:15.573Z,12.88
2023-09-15T00:21:44.201Z,12.89
2023-09-15T00:24:11.022Z,12.83
2023-09-15T00:26:39.184Z,12.73
2023-09-15T00:29:05.974Z,12.82
2023-09-15T00:31:33.499Z,12.80
2023-09-15T00:34:00.588Z,12.89
2023-09-15T00:36:27.639Z,13.13
2023-09-15T00:38:55.805Z,13.02
2023-09-15T00:41:22.821Z,13.17
2023-09-15T00:43:49.621Z,13.02
2023-09-15T00:46:16.708Z,12.90
2023-09-15T00:48:43.598Z,13.00
2023-09-15T00:51:10.604Z,13.26
2023-09-15T00:53:40.228Z,13.10
2023-09-15T00:56:09.216Z,12.96
2023-09-15T00:58:40.123Z,13.16
2023-09-15T01:01:07.972Z,13.00
2023-09-15T01:03:36.923Z,12.88
2023-09-15T01:06:04.008Z,12.80
2023-09-15T01:08:31.155Z,12.79
2023-09-15T01:11:02.585Z,12.80
2023-09-15T01:13:29.317Z,12.97
2023-09-15T01:16:02.779Z,12.83
2023-09-15T01:18:46.742Z,13.13
2023-09-15T01:21:22.655Z,12.89
2023-09-15T01:24:10.692Z,12.85
2023-09-15T01:26:48.157Z,12.72
2023-09-15T01:29:42.124Z,12.75
2023-09-15T01:32:11.580Z,12.47
2023-09-15T01:34:38.834Z,12.72
2023-09-15T01:37:06.352Z,12.41
2023-09-15T01:39:33.338Z,12.57
2023-09-15T01:42:01.028Z,12.25
2023-09-15T01:44:28.839Z,12.32
2023-09-15T01:46:55.660Z,12.54
2023-09-15T01:49:23.106Z,12.48
2023-09-15T01:51:50.479Z,12.57
2023-09-15T01:54:17.959Z,12.48
2023-09-15T01:56:45.710Z,12.51
2023-09-15T01:59:13.931Z,12.32
2023-09-15T02:01:40.927Z,12.47
2023-09-15T02:04:08.078Z,12.72
2023-09-15T02:06:35.013Z,12.27
2023-09-15T02:09:01.911Z,12.44
2023-09-15T02:11:28.748Z,12.62
2023-09-15T02:13:55.712Z,12.44
2023-09-15T02:16:22.724Z,12.47
2023-09-15T02:18:51.110Z,12.17
2023-09-15T02:21:18.227Z,12.35
2023-09-15T02:23:44.931Z,12.47
2023-09-15T02:26:12.215Z,12.37
2023-09-15T02:28:39.045Z,12.22
2023-09-15T02:31:06.586Z,12.25
2023-09-15T02:33:36.587Z,12.31
2023-09-15T02:36:04.610Z,11.91
2023-09-15T02:38:31.444Z,12.17
2023-09-15T02:40:58.273Z,12.31
2023-09-15T02:43:25.061Z,12.38
2023-09-15T02:45:52.128Z,11.99
2023-09-15T02:48:19.008Z,12.17
2023-09-15T02:50:46.797Z,11.91
2023-09-15T02:53:13.711Z,11.99
2023-09-15T02:55:40.444Z,12.27
2023-09-15T02:58:07.578Z,12.07
2023-09-15T03:00:34.450Z,12.17
2023-09-15T03:03:01.794Z,12.04
2023-09-15T03:05:28.698Z,12.10
2023-09-15T03:07:55.561Z,12.01
2023-09-15T03:10:22.462Z,12.07
2023-09-15T03:12:49.357Z,12.00
2023-09-15T03:15:17.317Z,12.06
2023-09-15T03:17:44.050Z,12.16
2023-09-15T03:20:20.638Z,12.10
2023-09-15T03:22:48.298Z,12.44
2023-09-15T03:25:15.780Z,12.10
2023-09-15T03:27:42.573Z,12.24
2023-09-15T03:30:09.698Z,12.31
2023-09-15T03:32:37.324Z,12.08
2023-09-15T03:35:06.951Z,12.01
2023-09-15T03:37:34.015Z,11.96
2023-09-15T03:40:01.369Z,11.78
2023-09-15T03:42:28.186Z,11.97
2023-09-15T03:44:55.899Z,11.96
2023-09-15T03:47:22.676Z,11.91
2023-09-15T03:49:49.451Z,11.76
2023-09-15T03:52:16.416Z,12.00
2023-09-15T03:54:43.298Z,12.01
2023-09-15T03:57:10.010Z,11.89
2023-09-15T03:59:37.424Z,11.63
2023-09-15T04:02:05.216Z,11.89
2023-09-15T04:04:32.305Z,11.55
2023-09-15T04:06:59.208Z,11.62
2023-09-15T04:09:26.099Z,11.71
2023-09-15T04:11:53.591Z,11.52
2023-09-15T04:14:20.335Z,11.55
2023-09-15T04:16:47.389Z,11.38
2023-09-15T04:19:14.372Z,11.41
2023-09-15T04:21:41.245Z,11.58
2023-09-15T04:24:09.008Z,11.66
2023-09-15T04:26:35.852Z,11.63
2023-09-15T04:29:02.736Z,11.49
2023-09-15T04:31:29.562Z,11.35
2023-09-15T04:33:56.569Z,11.36
2023-09-15T04:36:23.793Z,11.45
2023-09-15T04:38:50.566Z,11.21
2023-09-15T04:41:17.464Z,11.34
2023-09-15T04:43:44.262Z,11.35
2023-09-15T04:46:11.229Z,11.55
2023-09-15T04:48:38.185Z,11.69
2023-09-15T04:51:04.893Z,11.58
2023-09-15T04:53:31.804Z,11.32
2023-09-15T04:55:59.190Z,11.31
2023-09-15T04:58:25.962Z,11.60
2023-09-15T05:00:52.796Z,11.38
2023-09-15T05:03:19.637Z,11.53
2023-09-15T05:05:52.246Z,11.34
2023-09-15T05:08:19.615Z,11.28
2023-09-15T05:10:50.110Z,11.45
2023-09-15T05:13:17.426Z,11.36
2023-09-15T05:15:44.763Z,11.50
2023-09-15T05:18:11.598Z,11.52
2023-09-15T05:20:38.426Z,11.43
2023-09-15T05:23:05.261Z,11.35
2023-09-15T05:25:32.229Z,11.60
2023-09-15T05:27:59.043Z,11.65
2023-09-15T05:30:25.943Z,11.49
2023-09-15T05:32:52.872Z,11.55
2023-09-15T05:35:19.772Z,11.60
2023-09-15T05:37:46.520Z,11.65
2023-09-15T05:40:13.540Z,11.78
2023-09-15T05:42:40.401Z,11.79
2023-09-15T05:45:07.865Z,11.71
2023-09-15T05:47:34.707Z,12.24
2023-09-15T05:50:04.033Z,12.17
2023-09-15T05:52:31.057Z,12.14
2023-09-15T05:54:58.208Z,12.18
2023-09-15T05:57:25.020Z,12.38
2023-09-15T05:59:51.938Z,12.38
2023-09-15T06:02:21.428Z,12.41
2023-09-15T06:04:50.324Z,12.39
2023-09-15T06:07:19.643Z,12.68
2023-09-15T06:09:48.981Z,12.78
2023-09-15T06:12:15.840Z,12.76
2023-09-15T06:14:42.664Z,12.80
2023-09-15T06:17:09.537Z,12.86
2023-09-15T06:19:38.600Z,12.95
2023-09-15T06:22:06.848Z,13.02
2023-09-15T06:24:33.636Z,13.16
2023-09-15T06:27:00.411Z,13.37
2023-09-15T06:33:40.421Z,13.53
2023-09-15T06:36:07.188Z,13.53
2023-09-15T06:38:35.202Z,13.68
2023-09-15T06:41:02.790Z,13.84
2023-09-15T06:43:29.903Z,13.91
2023-09-15T06:45:56.765Z,14.01
2023-09-15T06:48:23.568Z,14.30
2023-09-15T06:50:50.307Z,14.25
2023-09-15T06:53:17.099Z,14.27
2023-09-15T06:55:43.855Z,14.25
2023-09-15T06:58:12.222Z,14.41
2023-09-15T07:00:39.385Z,14.60
2023-09-15T07:03:06.312Z,14.75
2023-09-15T07:05:33.128Z,14.81
2023-09-15T07:08:00.468Z,15.01
2023-09-15T07:10:27.265Z,15.64
2023-09-15T07:12:53.981Z,16.24
2023-09-15T07:15:21.484Z,16.65
2023-09-15T07:17:48.432Z,16.86
2023-09-15T07:20:15.486Z,16.62
2023-09-15T07:22:42.251Z,16.52
2023-09-15T07:25:09.296Z,16.42
2023-09-15T07:27:36.098Z,16.20
2023-09-15T07:30:03.015Z,16.03
2023-09-15T07:32:29.853Z,16.22
2023-09-15T07:34:56.637Z,16.75
2023-09-15T07:37:23.562Z,16.89
2023-09-15T07:39:50.363Z,17.03
2023-09-15T07:42:17.540Z,16.94
2023-09-15T07:44:44.488Z,17.79
2023-09-15T07:47:13.851Z,17.98
2023-09-15T07:49:40.617Z,17.47
2023-09-15T07:52:07.580Z,17.63
2023-09-15T07:54:34.320Z,17.72
2023-09-15T07:57:01.954Z,18.63
2023-09-15T07:59:28.785Z,18.57
2023-09-15T08:01:55.610Z,18.64
2023-09-15T08:04:22.478Z,18.41
2023-09-15T08:06:50.978Z,18.64
2023-09-15T08:09:18.689Z,18.84
2023-09-15T08:11:46.685Z,18.95
2023-09-15T08:14:13.790Z,19.40
2023-09-15T08:16:40.663Z,19.45
2023-09-15T08:19:08.907Z,19.26
2023-09-15T08:21:35.689Z,19.84
2023-09-15T08:24:02.503Z,19.60
2023-09-15T08:26:38.890Z,19.47
2023-09-15T08:29:12.916Z,20.29
2023-09-15T08:31:40.927Z,20.63
2023-09-15T08:34:07.877Z,20.33
2023-09-15T08:36:34.657Z,20.81
2023-09-15T08:39:01.482Z,21.04
2023-09-15T08:41:36.386Z,20.96
2023-09-15T08:44:04.101Z,21.11
2023-09-15T08:46:32.483Z,21.04
2023-09-15T08:48:59.793Z,21.41
2023-09-15T08:51:27.890Z,21.88
2023-09-15T08:53:57.870Z,22.43
2023-09-15T08:56:25.829Z,22.94
2023-09-15T08:58:53.063Z,22.27
2023-09-15T09:01:20.623Z,22.55
2023-09-15T09:03:47.998Z,21.68
2023-09-15T09:06:17.150Z,22.50
2023-09-15T09:08:48.019Z,22.63
2023-09-15T09:11:16.257Z,22.40
2023-09-15T09:13:44.826Z,22.99
2023-09-15T09:16:15.043Z,23.63
2023-09-15T09:18:42.194Z,23.98
2023-09-15T09:21:09.661Z,23.94
2023-09-15T09:23:36.421Z,23.02
2023-09-15T09:26:12.255Z,22.70
2023-09-15T09:28:40.162Z,23.28
2023-09-15T09:31:07.065Z,23.26
2023-09-15T09:33:34.021Z,23.54
2023-09-15T09:36:13.215Z,23.01
2023-09-15T09:38:46.552Z,23.02
2023-09-15T09:41:14.928Z,22.85
2023-09-15T09:43:44.835Z,22.61
2023-09-15T09:46:12.363Z,24.22
2023-09-15T09:48:41.019Z,24.16
2023-09-15T09:51:07.922Z,24.25
2023-09-15T09:53:36.081Z,24.68
2023-09-15T09:56:06.178Z,25.00
2023-09-15T09:58:34.390Z,24.02
2023-09-15T10:01:01.212Z,24.07
2023-09-15T10:03:28.103Z,24.59
2023-09-15T10:05:54.910Z,24.20
2023-09-15T10:08:22.318Z,23.53
2023-09-15T10:10:51.287Z,24.78
2023-09-15T10:13:19.390Z,23.94
2023-09-15T10:15:47.473Z,26.08
2023-09-15T10:18:17.499Z,25.00
2023-09-15T10:20:46.225Z,25.28
2023-09-15T10:23:16.088Z,24.65
2023-09-15T10:25:45.107Z,25.09
2023-09-15T10:28:16.449Z,24.85
2023-09-15T10:30:56.413Z,24.68
2023-09-15T10:33:32.296Z,24.48
2023-09-15T10:36:06.724Z,25.26
2023-09-15T10:38:36.706Z,25.92
2023-09-15T10:41:06.977Z,25.85
2023-09-15T10:43:33.940Z,27.30
2023-09-15T10:46:05.961Z,26.77
2023-09-15T10:48:39.334Z,26.39
2023-09-15T10:51:07.569Z,26.77
2023-09-15T10:53:48.363Z,27.00
2023-09-15T10:56:17.775Z,26.12
2023-09-15T10:58:49.071Z,26.54
2023-09-15T11:01:17.982Z,26.15
2023-09-15T11:03:45.676Z,26.47
2023-09-15T11:06:15.319Z,26.42
2023-09-15T11:08:42.693Z,25.36
2023-09-15T11:11:11.768Z,27.00
2023-09-15T11:13:40.475Z,27.39
2023-09-15T11:16:08.983Z,27.90
2023-09-15T11:18:37.112Z,27.99
2023-09-15T11:21:04.045Z,28.10
2023-09-15T11:23:30.883Z,27.73
2023-09-15T11:28:38.752Z,26.37
2023-09-15T11:31:11.447Z,27.20
2023-09-15T11:33:42.527Z,26.66
2023-09-15T11:36:09.558Z,27.78
2023-09-15T11:38:37.464Z,28.60
2023-09-15T11:41:06.369Z,28.94
2023-09-15T11:43:33.896Z,27.82
2023-09-15T11:46:01.812Z,27.25
2023-09-15T11:48:30.241Z,27.94
2023-09-15T11:50:59.382Z,28.31
2023-09-15T11:53:26.963Z,28.58
2023-09-15T11:55:53.910Z,28.78
2023-09-15T11:58:21.060Z,28.09
2023-09-15T12:00:48.016Z,29.40
2023-09-15T12:03:15.815Z,28.06
2023-09-15T12:05:43.173Z,28.43
2023-09-15T12:08:11.638Z,27.70
2023-09-15T12:10:39.363Z,28.06
2023-09-15T12:13:06.284Z,27.93
2023-09-15T12:15:34.617Z,28.43
2023-09-15T12:18:04.959Z,28.57
2023-09-15T12:20:35.434Z,28.31
2023-09-15T12:23:11.573Z,27.79
2023-09-15T12:25:39.007Z,27.32
2023-09-15T12:28:07.503Z,28.52
2023-09-15T12:30:37.297Z,27.92
2023-09-15T12:33:08.180Z,27.05
2023-09-15T12:35:40.528Z,28.01
2023-09-15T12:38:07.410Z,27.86
2023-09-15T12:40:35.644Z,28.23
2023-09-15T12:43:02.459Z,28.84
2023-09-15T12:45:29.259Z,28.91
2023-09-15T12:47:56.071Z,27.63
2023-09-15T12:50:24.309Z,27.41
2023-09-15T12:52:51.080Z,26.87
2023-09-15T12:55:18.508Z,26.42
2023-09-15T12:57:45.528Z,26.74
2023-09-15T13:00:12.544Z,27.02
2023-09-15T13:02:39.462Z,27.97
2023-09-15T13:05:06.562Z,28.14
2023-09-15T13:07:33.491Z,26.93
2023-09-15T13:10:00.184Z,27.39
2023-09-15T13:12:27.133Z,27.53
2023-09-15T13:14:53.983Z,27.83
2023-09-15T13:17:21.057Z,27.53
2023-09-15T13:19:47.829Z,27.76
2023-09-15T13:22:14.624Z,28.61
2023-09-15T13:24:41.791Z,28.74
2023-09-15T13:27:08.672Z,28.31
2023-09-15T13:29:35.370Z,28.98
2023-09-15T13:32:02.093Z,29.20
2023-09-15T13:34:28.852Z,29.16
2023-09-15T13:36:55.723Z,27.80
2023-09-15T13:39:22.749Z,28.28
2023-09-15T13:41:50.457Z,28.37
2023-09-15T13:44:17.620Z,28.96
2023-09-15T13:46:44.819Z,30.20
2023-09-15T13:49:12.580Z,30.00
2023-09-15T13:51:43.113Z,28.75
2023-09-15T13:54:11.193Z,30.00
2023-09-15T13:56:38.097Z,29.90
2023-09-15T13:59:05.048Z,29.39
2023-09-15T14:01:32.735Z,29.93
2023-09-15T14:03:59.599Z,29.83
2023-09-15T14:06:26.503Z,30.32
2023-09-15T14:08:53.889Z,30.25
2023-09-15T14:11:20.756Z,28.41
2023-09-15T14:13:47.627Z,29.57
2023-09-15T14:16:14.333Z,27.05
2023-09-15T14:18:41.270Z,27.97
2023-09-15T14:21:08.187Z,28.79
2023-09-15T14:23:34.897Z,30.21
2023-09-15T14:26:02.926Z,29.16
2023-09-15T14:28:30.096Z,29.50
2023-09-15T14:30:56.907Z,28.68
2023-09-15T14:33:23.721Z,27.79
2023-09-15T14:35:50.604Z,27.76
2023-09-15T14:38:17.240Z,27.02
2023-09-15T14:40:44.121Z,27.53
2023-09-15T14:43:10.815Z,26.90
2023-09-15T14:45:37.719Z,28.69
2023-09-15T14:48:05.518Z,29.19
2023-09-15T14:50:34.510Z,29.63
2023-09-15T14:53:01.729Z,30.18
2023-09-15T14:55:28.715Z,30.10
2023-09-15T14:57:55.513Z,29.76
2023-09-15T15:00:22.210Z,28.27
2023-09-15T15:02:49.535Z,30.28
2023-09-15T15:05:16.980Z,30.62
2023-09-15T15:07:43.891Z,30.48
2023-09-15T15:10:11.906Z,29.09
2023-09-15T15:12:40.227Z,29.49
2023-09-15T15:15:07.800Z,27.63
2023-09-15T15:17:34.887Z,28.13
2023-09-15T15:20:01.753Z,29.06
2023-09-15T15:22:28.532Z,28.04
2023-09-15T15:24:55.344Z,27.85
2023-09-15T15:27:22.084Z,28.33
2023-09-15T15:29:49.651Z,27.62
2023-09-15T15:32:16.639Z,27.62
2023-09-15T15:34:43.465Z,26.80
2023-09-15T15:37:10.346Z,26.59
2023-09-15T15:39:37.206Z,26.09
2023-09-15T15:42:04.175Z,26.19
2023-09-15T15:44:31.246Z,25.58
2023-09-15T15:46:59.045Z,26.49
2023-09-15T15:49:25.937Z,26.46
2023-09-15T15:51:52.772Z,26.44
2023-09-15T15:54:19.693Z,27.17
2023-09-15T15:56:47.339Z,27.65
2023-09-15T15:59:14.264Z,26.90
2023-09-15T16:01:40.989Z,27.38
2023-09-15T16:04:07.818Z,27.51
2023-09-15T16:06:34.750Z,27.51
2023-09-15T16:09:01.870Z,26.80
2023-09-15T16:11:28.582Z,26.40
2023-09-15T16:13:55.476Z,26.59
2023-09-15T16:16:22.276Z,26.67
2023-09-15T16:18:49.671Z,25.36
2023-09-15T16:21:16.785Z,24.97
2023-09-15T16:23:43.635Z,24.90
2023-09-15T16:26:10.485Z,24.69
2023-09-15T16:28:37.369Z,24.78
2023-09-15T16:31:04.236Z,25.44
2023-09-15T16:33:31.211Z,25.89
2023-09-15T16:36:03.347Z,25.51
2023-09-15T16:38:30.824Z,25.38
2023-09-15T16:41:01.889Z,25.34
2023-09-15T16:43:31.549Z,25.06
2023-09-15T16:45:59.587Z,25.03
2023-09-15T16:48:27.755Z,24.59
2023-09-15T16:50:54.721Z,24.48
2023-09-15T16:53:21.501Z,24.28
2023-09-15T16:55:49.252Z,24.05
2023-09-15T16:58:17.179Z,23.83
2023-09-15T17:00:44.940Z,23.59
2023-09-15T17:03:12.516Z,23.36
2023-09-15T17:05:39.948Z,23.40
2023-09-15T17:08:07.270Z,23.16
2023-09-15T17:10:38.182Z,22.99
2023-09-15T17:13:05.971Z,22.99
2023-09-15T17:15:33.816Z,22.90
2023-09-15T17:18:01.411Z,22.90
2023-09-15T17:20:28.500Z,22.91
2023-09-15T17:22:55.439Z,22.80
2023-09-15T17:25:22.191Z,22.87
2023-09-15T17:27:49.163Z,22.68
2023-09-15T17:30:17.704Z,22.63
2023-09-15T17:32:45.155Z,22.44
2023-09-15T17:35:11.966Z,22.33
2023-09-15T17:37:39.746Z,22.29
2023-09-15T17:40:08.052Z,22.27
2023-09-15T17:42:35.030Z,22.22
2023-09-15T17:45:02.350Z,22.19
2023-09-15T17:47:29.280Z,21.96
2023-09-15T17:50:10.272Z,21.82
2023-09-15T17:52:40.646Z,21.68
2023-09-15T17:58:40.389Z,21.62
2023-09-15T18:01:07.653Z,21.37
2023-09-15T18:03:35.185Z,21.46
2023-09-15T18:06:12.142Z,21.25
2023-09-15T18:08:38.922Z,21.21
2023-09-15T18:11:05.866Z,21.18
2023-09-15T18:13:32.890Z,21.04
2023-09-15T18:15:59.710Z,21.03
2023-09-15T18:18:26.574Z,21.03
2023-09-15T18:20:54.009Z,21.06
2023-09-15T18:23:20.781Z,20.97
2023-09-15T18:25:47.637Z,20.73
2023-09-15T18:28:14.992Z,20.75
2023-09-15T18:30:42.236Z,20.69
2023-09-15T18:33:09.391Z,20.57
2023-09-15T18:35:39.576Z,20.53
2023-09-15T18:38:06.726Z,20.45
2023-09-15T18:40:35.423Z,20.40
2023-09-15T18:43:02.286Z,20.38
2023-09-15T18:45:32.698Z,20.29
2023-09-15T18:48:00.299Z,20.28
2023-09-15T18:50:27.946Z,20.26
2023-09-15T18:52:54.679Z,20.18
2023-09-15T18:55:22.115Z,20.19
2023-09-15T18:57:49.008Z,20.11
2023-09-15T19:00:16.132Z,20.09
2023-09-15T19:02:43.203Z,20.11
2023-09-15T19:05:10.140Z,20.19
2023-09-15T19:07:37.020Z,20.04
2023-09-15T19:10:07.203Z,20.08
2023-09-15T19:12:34.708Z,20.07
2023-09-15T19:15:01.810Z,19.95
2023-09-15T19:17:32.699Z,19.90
2023-09-15T19:19:59.958Z,19.95
2023-09-15T19:22:26.682Z,19.85
2023-09-15T19:24:53.608Z,19.85
2023-09-15T19:27:20.702Z,19.87
2023-09-15T19:29:47.748Z,19.87
2023-09-15T19:32:14.527Z,19.78
2023-09-15T19:34:42.656Z,19.70
2023-09-15T19:37:11.229Z,19.71
2023-09-15T19:39:40.256Z,19.64
2023-09-15T19:42:07.453Z,19.47
2023-09-15T19:44:34.515Z,19.74
2023-09-15T19:47:01.250Z,19.57
2023-09-15T19:49:28.050Z,19.49
2023-09-15T19:51:54.976Z,19.46
2023-09-15T19:54:22.528Z,19.43
2023-09-15T19:56:53.172Z,19.50
2023-09-15T19:59:20.724Z,19.46
2023-09-15T20:01:47.448Z,19.46
2023-09-15T20:04:16.392Z,19.57
2023-09-15T20:06:43.191Z,19.51
2023-09-15T20:09:11.339Z,19.35
2023-09-15T20:11:38.183Z,19.43
2023-09-15T20:14:05.023Z,19.36
2023-09-15T20:16:31.801Z,19.36
2023-09-15T20:18:58.676Z,19.35
2023-09-15T20:21:26.685Z,19.38
2023-09-15T20:23:53.925Z,19.42
2023-09-15T20:26:20.777Z,19.18
2023-09-15T20:28:48.107Z,19.03
2023-09-15T20:31:17.807Z,19.08
2023-09-15T20:33:44.684Z,19.03
2023-09-15T20:36:11.575Z,19.20
2023-09-15T20:38:38.283Z,19.19
2023-09-15T20:41:07.086Z,19.09
2023-09-15T20:43:34.530Z,19.06
2023-09-15T20:46:01.756Z,18.80
2023-09-15T20:48:35.057Z,18.74
2023-09-15T20:51:01.979Z,18.64
2023-09-15T20:53:29.042Z,18.71
2023-09-15T20:55:55.823Z,18.63
2023-09-15T20:58:22.733Z,18.55
2023-09-15T21:00:53.462Z,18.60
2023-09-15T21:03:20.472Z,18.67
2023-09-15T21:05:55.153Z,18.64
2023-09-15T21:08:22.640Z,18.65
2023-09-15T21:10:51.241Z,18.70
2023-09-15T21:13:18.686Z,18.52
2023-09-15T21:15:45.937Z,18.67
2023-09-15T21:18:14.358Z,18.26
2023-09-15T21:20:44.814Z,18.27
2023-09-15T21:23:12.090Z,18.20
2023-09-15T21:25:43.194Z,18.23
2023-09-15T21:28:10.482Z,18.24
2023-09-15T21:30:37.929Z,18.10
2023-09-15T21:33:05.106Z,17.95
2023-09-15T21:35:32.300Z,17.76
2023-09-15T21:38:02.797Z,17.93
2023-09-15T21:40:29.913Z,18.08
2023-09-15T21:42:57.055Z,17.95
2023-09-15T21:45:24.214Z,17.95
2023-09-15T21:47:51.270Z,17.82
2023-09-15T21:50:18.361Z,17.99
2023-09-15T21:52:45.219Z,17.92
2023-09-15T21:55:11.989Z,17.86
2023-09-15T21:57:38.956Z,17.78
2023-09-15T22:00:27.217Z,17.65
2023-09-15T22:02:58.093Z,17.68
2023-09-15T22:05:31.749Z,17.59
2023-09-15T22:08:03.874Z,17.52
2023-09-15T22:10:31.166Z,17.26
2023-09-15T22:12:58.744Z,17.27
2023-09-15T22:15:25.760Z,17.45
2023-09-15T22:17:52.761Z,17.61
2023-09-15T22:20:20.694Z,17.55
2023-09-15T22:22:49.396Z,17.40
2023-09-15T22:25:18.325Z,17.50
2023-09-15T22:27:45.817Z,17.34
2023-09-15T22:30:13.922Z,17.07
2023-09-15T22:32:41.599Z,17.06
2023-09-15T22:35:11.330Z,17.13
2023-09-15T22:37:38.739Z,17.20
2023-09-15T22:40:10.878Z,17.17
2023-09-15T22:42:40.388Z,17.20
2023-09-15T22:45:13.517Z,17.11
2023-09-15T22:47:40.832Z,17.13
2023-09-15T22:50:08.700Z,17.30
2023-09-15T22:52:35.640Z,17.10
2023-09-15T22:55:02.962Z,16.97
2023-09-15T22:57:30.106Z,17.06
2023-09-15T22:59:56.937Z,17.11
2023-09-15T23:02:24.823Z,16.97
2023-09-15T23:04:54.664Z,16.97
2023-09-15T23:07:21.406Z,17.17
2023-09-15T23:09:48.354Z,17.00
2023-09-15T23:12:15.242Z,16.99
2023-09-15T23:14:42.759Z,17.07
2023-09-15T23:17:10.760Z,17.35
2023-09-15T23:19:37.571Z,17.27
2023-09-15T23:22:05.764Z,17.03
2023-09-15T23:24:32.629Z,16.99
2023-09-15T23:26:59.466Z,16.89
2023-09-15T23:29:26.300Z,16.93
2023-09-15T23:31:53.184Z,17.13
2023-09-15T23:34:20.089Z,17.20
2023-09-15T23:36:47.949Z,17.26
2023-09-15T23:39:18.812Z,17.13
2023-09-15T23:41:45.673Z,17.04
2023-09-15T23:44:13.325Z,17.21
2023-09-15T23:46:40.087Z,17.35
2023-09-15T23:49:07.026Z,17.18
2023-09-15T23:51:33.911Z,17.28
2023-09-15T23:54:00.777Z,17.08
2023-09-15T23:56:28.845Z,17.04
